Time;durP1;ratioP1;P1;durP2;ratioP2;P2;SDS_P1;SDS_P2;PMS_P1;PMS_P2;Temp;Humidity;BMP_temperature;BMP_pressure;BME280_temperature;BME280_humidity;BME280_pressure;Samples;Min_cycle;Max_cycle;Signal;HPM_P1;HPM_P2
2023/02/17 00:01:12;;;;;;;26.70;16.37;;;;;;;7.96;92.18;101104.72;4993970;28;20200;-83
2023/02/17 00:03:39;;;;;;;21.37;15.20;;;;;;;7.97;92.20;101099.38;4995556;28;20211;-82
2023/02/17 00:06:06;;;;;;;26.00;17.73;;;;;;;8.01;92.11;101092.13;4991806;28;20227;-83
2023/02/17 00:08:34;;;;;;;27.00;18.10;;;;;;;7.99;91.68;101094.00;4995321;28;20207;-82
2023/02/17 00:11:01;;;;;;;24.00;16.13;;;;;;;8.01;92.37;101086.81;4996998;28;20238;-82
2023/02/17 00:13:28;;;;;;;23.00;15.90;;;;;;;8.03;92.08;101090.28;4999792;28;20667;-82
2023/02/17 00:15:54;;;;;;;25.53;17.53;;;;;;;8.01;92.39;101087.69;4991324;28;20206;-82
2023/02/17 00:18:21;;;;;;;24.73;16.60;;;;;;;8.04;93.08;101083.19;4992971;28;20211;-82
2023/02/17 00:20:47;;;;;;;21.23;14.53;;;;;;;8.07;93.33;101078.56;4995635;28;20212;-82
2023/02/17 00:23:14;;;;;;;19.77;13.27;;;;;;;8.10;93.46;101077.56;4991426;28;20203;-81
2023/02/17 00:25:41;;;;;;;23.27;16.03;;;;;;;8.10;93.60;101073.13;4995591;28;20227;-81
2023/02/17 00:28:08;;;;;;;21.67;16.77;;;;;;;8.08;93.61;101080.28;4993546;28;20677;-82
2023/02/17 00:30:34;;;;;;;23.47;16.43;;;;;;;8.10;93.93;101081.09;5004640;28;20672;-83
2023/02/17 00:33:01;;;;;;;24.73;16.47;;;;;;;8.10;93.93;101080.22;4994523;28;20232;-82
2023/02/17 00:35:27;;;;;;;24.57;16.60;;;;;;;8.12;94.67;101075.72;5005060;28;20227;-82
2023/02/17 00:37:54;;;;;;;19.77;15.27;;;;;;;8.12;94.55;101065.97;4999995;28;20218;-82
2023/02/17 00:40:20;;;;;;;22.43;16.53;;;;;;;8.11;95.25;101076.63;5001032;28;20676;-82
2023/02/17 00:42:48;;;;;;;22.17;16.30;;;;;;;8.12;95.65;101071.25;4999954;28;20199;-82
2023/02/17 00:45:15;;;;;;;21.87;15.47;;;;;;;8.12;95.26;101068.63;4997296;28;20274;-82
2023/02/17 00:47:41;;;;;;;19.10;15.33;;;;;;;8.16;95.70;101062.25;5000878;28;20208;-83
2023/02/17 00:50:08;;;;;;;24.63;16.83;;;;;;;8.13;96.36;101054.41;4994870;28;20204;-82
2023/02/17 00:52:35;;;;;;;18.77;12.10;;;;;;;8.16;95.75;101054.28;5002171;28;20231;-83
2023/02/17 00:55:02;;;;;;;22.17;13.87;;;;;;;8.15;96.06;101060.50;4997573;28;20232;-82
2023/02/17 00:57:31;;;;;;;21.93;14.90;;;;;;;8.16;96.96;101058.72;4997833;28;20214;-83
2023/02/17 00:59:58;;;;;;;16.80;13.57;;;;;;;8.16;96.89;101070.19;4991727;28;20209;-82
2023/02/17 01:02:25;;;;;;;17.30;13.63;;;;;;;8.18;97.10;101063.03;4997192;28;20239;-83
2023/02/17 01:04:52;;;;;;;18.20;13.43;;;;;;;8.19;96.89;101058.59;4996291;28;20236;-82
2023/02/17 01:07:18;;;;;;;17.73;13.60;;;;;;;8.20;97.15;101071.78;4995250;28;20208;-83
2023/02/17 01:09:44;;;;;;;16.37;12.97;;;;;;;8.21;97.13;101060.25;4988763;28;20208;-82
2023/02/17 01:12:11;;;;;;;18.23;13.67;;;;;;;8.22;97.34;101061.09;4994425;28;20235;-83
2023/02/17 01:14:38;;;;;;;16.63;12.23;;;;;;;8.22;97.70;101054.00;5000862;28;20227;-82
2023/02/17 01:17:06;;;;;;;16.07;13.23;;;;;;;8.22;98.10;101067.28;4999655;28;20207;-82
2023/02/17 01:19:33;;;;;;;13.30;11.93;;;;;;;8.25;97.99;101069.75;4993592;28;20216;-83
2023/02/17 01:22:00;;;;;;;14.63;12.63;;;;;;;8.27;98.96;101054.63;4996609;28;20235;-82
2023/02/17 01:24:26;;;;;;;16.50;12.03;;;;;;;8.27;98.91;101051.09;4997836;28;20232;-82
2023/02/17 01:26:53;;;;;;;16.23;13.27;;;;;;;8.26;100.00;101049.38;4997701;28;20207;-83
2023/02/17 01:29:19;;;;;;;15.73;12.63;;;;;;;8.28;99.27;101047.53;5003516;28;20219;-82
2023/02/17 01:31:45;;;;;;;17.83;12.73;;;;;;;8.29;99.76;101051.91;4997446;28;20231;-83
2023/02/17 01:34:13;;;;;;;13.43;11.73;;;;;;;8.33;99.37;101053.50;4995750;28;20235;-83
2023/02/17 01:36:40;;;;;;;17.57;12.87;;;;;;;8.32;99.87;101057.09;5002201;28;20203;-82
2023/02/17 01:39:06;;;;;;;15.33;11.70;;;;;;;8.35;100.00;101051.66;4993750;28;20233;-82
2023/02/17 01:41:33;;;;;;;15.50;12.80;;;;;;;8.33;100.00;101035.78;4993389;28;20204;-83
2023/02/17 01:44:09;;;;;;;14.57;12.50;;;;;;;8.35;100.00;101039.25;4993862;28;20916;-80
2023/02/17 01:46:37;;;;;;;15.63;12.93;;;;;;;8.34;100.00;101024.25;4999931;28;20214;-83
2023/02/17 01:49:08;;;;;;;15.90;13.67;;;;;;;8.34;100.00;101026.91;4992403;28;20204;-82
2023/02/17 01:51:38;;;;;;;17.37;13.80;;;;;;;8.36;100.00;101013.56;4993429;28;20220;-82
2023/02/17 01:54:08;;;;;;;16.50;12.87;;;;;;;8.37;100.00;101014.44;4994727;28;20227;-83
2023/02/17 01:56:38;;;;;;;16.20;13.50;;;;;;;8.39;100.00;101001.94;4994220;28;20203;-83
2023/02/17 01:59:08;;;;;;;18.33;14.47;;;;;;;8.42;100.00;100993.84;4989278;28;20211;-83
2023/02/17 02:01:35;;;;;;;19.60;14.03;;;;;;;8.44;100.00;100983.97;4992679;28;20226;-83
2023/02/17 02:04:04;;;;;;;16.60;13.33;;;;;;;8.44;100.00;100971.56;4989911;28;20231;-83
2023/02/17 02:06:33;;;;;;;16.60;13.60;;;;;;;8.44;100.00;100973.38;4989270;28;20207;-82
2023/02/17 02:09:05;;;;;;;17.63;14.40;;;;;;;8.46;100.00;100976.81;4988285;28;20216;-83
2023/02/17 02:11:32;;;;;;;17.20;15.20;;;;;;;8.45;100.00;100967.13;4989403;28;20211;-82
2023/02/17 02:13:59;;;;;;;17.13;14.17;;;;;;;8.45;100.00;100965.31;4992445;28;20223;-83
2023/02/17 02:16:32;;;;;;;15.97;14.13;;;;;;;8.47;100.00;100967.91;4995100;28;20203;-81
2023/02/17 02:19:04;;;;;;;17.30;13.23;;;;;;;8.45;100.00;100964.47;4998452;28;20210;-82
2023/02/17 02:22:10;;;;;;;16.90;13.70;;;;;;;8.49;100.00;100963.38;4991088;28;20215;-82
2023/02/17 02:24:51;;;;;;;16.47;13.30;;;;;;;8.50;100.00;100960.66;4966914;28;20229;-83
2023/02/17 02:27:34;;;;;;;16.07;12.83;;;;;;;8.53;100.00;100959.66;5001682;28;20660;-83
2023/02/17 02:30:40;;;;;;;17.93;12.57;;;;;;;8.59;100.00;100967.31;4987546;28;20208;-82
2023/02/17 02:33:16;;;;;;;15.20;13.17;;;;;;;8.59;100.00;100967.31;4992071;28;20216;-83
2023/02/17 02:35:54;;;;;;;15.63;13.07;;;;;;;8.59;100.00;100967.31;4995013;28;20227;-83
2023/02/17 02:38:26;;;;;;;15.70;12.00;;;;;;;8.61;100.00;100954.78;4987795;28;20208;-83
2023/02/17 02:40:58;;;;;;;15.50;12.80;;;;;;;8.62;100.00;100954.72;4998991;28;20218;-82
2023/02/17 02:43:26;;;;;;;14.40;12.50;;;;;;;8.62;100.00;100956.53;4994402;28;20196;-82
2023/02/17 02:45:52;;;;;;;18.57;13.53;;;;;;;8.65;100.00;100951.06;4999444;28;20211;-83
2023/02/17 02:48:20;;;;;;;15.13;13.57;;;;;;;8.66;100.00;100952.78;4996152;28;20207;-83
2023/02/17 02:51:02;;;;;;;15.73;12.83;;;;;;;8.67;100.00;100954.50;4988815;28;20204;-82
2023/02/17 02:53:49;;;;;;;16.30;13.03;;;;;;;8.67;100.00;100954.50;4994288;28;20219;-83
2023/02/17 02:56:27;;;;;;;13.43;11.87;;;;;;;8.69;100.00;100939.34;4989750;28;20215;-82
2023/02/17 02:59:03;;;;;;;15.10;12.90;;;;;;;8.70;100.00;100944.59;4985352;28;20229;-82
2023/02/17 03:01:37;;;;;;;14.53;12.77;;;;;;;8.71;100.00;100934.81;4985114;28;20216;-82
2023/02/17 03:04:12;;;;;;;15.03;12.47;;;;;;;8.73;100.00;100929.44;4993601;28;20238;-83
2023/02/17 03:06:46;;;;;;;13.13;11.47;;;;;;;8.75;100.00;100915.16;4990306;28;20206;-83
2023/02/17 03:09:17;;;;;;;14.43;12.20;;;;;;;8.73;100.00;100925.00;4993916;28;20215;-82
2023/02/17 03:11:46;;;;;;;14.90;12.20;;;;;;;8.75;100.00;100922.25;4983695;28;20235;-83
2023/02/17 03:14:15;;;;;;;15.37;12.00;;;;;;;8.77;100.00;100918.59;4998710;28;20231;-82
2023/02/17 03:16:43;;;;;;;16.63;12.97;;;;;;;8.77;100.00;100909.75;4994868;28;20210;-82
2023/02/17 03:19:11;;;;;;;16.60;13.10;;;;;;;8.78;100.00;100920.28;4994787;28;20199;-83
2023/02/17 03:21:42;;;;;;;14.83;13.20;;;;;;;8.80;100.00;100915.75;4989557;28;20218;-83
2023/02/17 03:24:10;;;;;;;14.17;12.50;;;;;;;8.84;100.00;100913.81;4989795;28;20780;-82
2023/02/17 03:26:36;;;;;;;13.20;11.80;;;;;;;8.85;100.00;100919.03;4993651;28;20199;-82
2023/02/17 03:29:03;;;;;;;15.57;12.03;;;;;;;8.88;100.00;100916.22;4991654;28;20856;-82
2023/02/17 03:31:29;;;;;;;14.80;12.20;;;;;;;8.89;100.00;100917.94;4988370;28;20199;-82
2023/02/17 03:33:56;;;;;;;13.13;11.50;;;;;;;8.92;100.00;100907.16;4992665;28;20227;-82
2023/02/17 03:36:24;;;;;;;12.93;11.63;;;;;;;8.93;100.00;100911.53;4990324;28;20214;-82
2023/02/17 03:38:50;;;;;;;13.20;11.80;;;;;;;8.94;100.00;100905.28;4989757;28;20575;-82
2023/02/17 03:41:17;;;;;;;13.40;11.63;;;;;;;8.95;100.00;100914.13;4988256;28;20215;-82
2023/02/17 03:43:43;;;;;;;14.70;12.50;;;;;;;8.93;100.00;100910.69;4993657;28;20715;-82
2023/02/17 03:46:11;;;;;;;12.47;11.00;;;;;;;8.96;100.00;100906.03;4986806;28;20210;-82
2023/02/17 03:48:38;;;;;;;13.33;11.23;;;;;;;8.98;100.00;100917.44;4986509;28;20204;-82
2023/02/17 03:51:10;;;;;;;12.30;11.00;;;;;;;8.99;100.00;100916.50;4989130;28;20211;-81
2023/02/17 03:53:38;;;;;;;12.50;10.80;;;;;;;9.01;100.00;100911.97;4980534;28;20243;-82
2023/02/17 03:56:05;;;;;;;12.93;10.63;;;;;;;9.01;100.00;100911.97;4989665;28;20200;-82
2023/02/17 03:58:31;;;;;;;12.27;10.90;;;;;;;9.03;100.00;100907.44;4990314;28;20211;-82
2023/02/17 04:00:58;;;;;;;14.60;11.97;;;;;;;9.02;100.00;100897.75;4991169;28;20212;-85
2023/02/17 04:03:25;;;;;;;13.63;12.00;;;;;;;9.03;100.00;100888.00;4991269;28;20588;-84
2023/02/17 04:05:53;;;;;;;14.30;12.30;;;;;;;9.03;100.00;100880.88;4998061;28;20782;-84
2023/02/17 04:08:20;;;;;;;13.93;10.87;;;;;;;9.05;100.00;100878.16;4986191;28;20210;-84
2023/02/17 04:10:51;;;;;;;12.80;11.40;;;;;;;9.07;100.00;100888.69;4993738;28;20215;-84
2023/02/17 04:13:18;;;;;;;11.87;10.67;;;;;;;9.09;100.00;100887.69;4992174;28;20220;-84
2023/02/17 04:15:44;;;;;;;13.20;11.57;;;;;;;9.10;100.00;100880.56;4998240;28;20230;-84
2023/02/17 04:18:10;;;;;;;13.10;11.43;;;;;;;9.11;100.00;100883.13;4989607;28;20259;-84
2023/02/17 04:20:37;;;;;;;12.20;10.70;;;;;;;9.13;100.00;100877.75;4993826;28;20207;-83
2023/02/17 04:23:03;;;;;;;12.03;10.60;;;;;;;9.12;100.00;100876.03;4993523;28;20207;-84
2023/02/17 04:25:30;;;;;;;12.27;10.37;;;;;;;9.13;100.00;100877.75;4992452;28;20221;-84
2023/02/17 04:27:58;;;;;;;13.50;11.20;;;;;;;9.13;100.00;100870.63;4981438;28;20201;-84
2023/02/17 04:30:24;;;;;;;12.77;10.90;;;;;;;9.15;100.00;100873.19;4990821;28;20203;-85
2023/02/17 04:32:51;;;;;;;12.87;10.63;;;;;;;9.16;100.00;100877.56;4983393;28;20228;-84
2023/02/17 04:35:18;;;;;;;10.83;9.73;;;;;;;9.16;100.00;100877.56;4991619;28;20246;-84
2023/02/17 04:37:44;;;;;;;12.10;10.10;;;;;;;9.20;100.00;100879.97;4987710;28;20207;-83
2023/02/17 04:40:11;;;;;;;12.07;10.60;;;;;;;9.20;100.00;100889.75;4991189;28;20214;-84
2023/02/17 04:42:38;;;;;;;12.37;10.37;;;;;;;9.20;100.00;100900.38;5004406;28;20195;-83
2023/02/17 04:45:07;;;;;;;12.20;10.80;;;;;;;9.24;100.00;100893.97;4985430;28;20226;-83
2023/02/17 04:47:34;;;;;;;11.27;10.17;;;;;;;9.24;100.00;100897.47;4986895;28;20207;-84
2023/02/17 04:50:00;;;;;;;12.33;11.03;;;;;;;9.25;100.00;100901.84;4989052;28;20212;-83
2023/02/17 04:52:27;;;;;;;11.47;10.30;;;;;;;9.25;100.00;100893.03;4990719;28;20204;-84
2023/02/17 04:54:53;;;;;;;12.20;10.80;;;;;;;9.25;100.00;100882.38;4988589;28;20719;-84
2023/02/17 04:57:20;;;;;;;12.97;10.63;;;;;;;9.27;100.00;100869.88;4995512;28;20234;-83
2023/02/17 04:59:46;;;;;;;12.40;10.60;;;;;;;9.26;100.00;100858.41;4986201;28;20228;-83
2023/02/17 05:02:14;;;;;;;13.67;11.03;;;;;;;9.27;100.00;100868.09;4984375;28;20219;-83
2023/02/17 05:04:40;;;;;;;11.90;10.57;;;;;;;9.27;100.00;100862.78;4987052;28;20574;-84
2023/02/17 05:07:07;;;;;;;11.27;10.07;;;;;;;9.26;100.00;100860.19;4983151;28;20210;-84
2023/02/17 05:09:33;;;;;;;12.37;10.17;;;;;;;9.27;100.00;100859.25;4986369;28;20216;-84
2023/02/17 05:12:01;;;;;;;11.80;10.33;;;;;;;9.25;100.00;100858.47;4989613;28;20211;-83
2023/02/17 05:14:28;;;;;;;10.53;9.33;;;;;;;9.25;100.00;100853.16;4994108;28;20224;-83
2023/02/17 05:16:54;;;;;;;11.73;10.00;;;;;;;9.26;100.00;100860.19;4985206;28;20211;-84
2023/02/17 05:19:22;;;;;;;11.13;9.67;;;;;;;9.26;100.00;100852.22;4986012;28;20215;-83
2023/02/17 05:21:50;;;;;;;10.73;9.57;;;;;;;9.26;100.00;100854.88;4984607;28;20203;-84
2023/02/17 05:24:16;;;;;;;11.17;9.70;;;;;;;9.27;100.00;100840.66;4986731;28;20228;-84
2023/02/17 05:26:43;;;;;;;10.70;8.67;;;;;;;9.29;100.00;100836.97;4984849;28;20832;-83
2023/02/17 05:29:09;;;;;;;10.60;9.33;;;;;;;9.32;100.00;100836.78;4991799;28;20204;-83
2023/02/17 05:31:36;;;;;;;10.00;8.83;;;;;;;9.32;100.00;100819.97;4987419;28;20208;-85
2023/02/17 05:34:02;;;;;;;9.10;8.20;;;;;;;9.36;100.00;100810.88;4982990;28;20231;-82
2023/02/17 05:36:30;;;;;;;10.37;8.70;;;;;;;9.38;100.00;100809.00;4986913;28;20212;-83
2023/02/17 05:38:57;;;;;;;9.53;8.60;;;;;;;9.36;100.00;100800.25;4988214;28;20213;-83
2023/02/17 05:41:23;;;;;;;10.57;9.47;;;;;;;9.35;100.00;100798.53;4980293;28;20208;-82
2023/02/17 05:43:50;;;;;;;11.80;9.50;;;;;;;9.37;100.00;100809.94;4979956;28;20232;-83
2023/02/17 05:46:16;;;;;;;10.30;9.17;;;;;;;9.39;100.00;100805.41;4987247;28;20204;-83
2023/02/17 05:48:44;;;;;;;10.47;9.37;;;;;;;9.42;100.00;100804.38;4979476;28;20208;-82
2023/02/17 05:51:12;;;;;;;9.97;8.77;;;;;;;9.44;100.00;100807.81;4990569;28;20492;-83
2023/02/17 05:53:40;;;;;;;11.23;9.57;;;;;;;9.45;100.00;100804.22;4993723;28;20228;-83
2023/02/17 05:56:06;;;;;;;10.23;9.10;;;;;;;9.47;100.00;100808.50;4992383;28;20211;-82
2023/02/17 05:58:33;;;;;;;13.27;10.23;;;;;;;9.51;100.00;100810.03;4984627;28;20214;-82
2023/02/17 06:00:59;;;;;;;13.50;11.40;;;;;;;9.50;100.00;100802.13;4986791;28;20222;-82
2023/02/17 06:03:26;;;;;;;14.00;11.03;;;;;;;9.53;100.00;100796.66;4989825;28;20219;-82
2023/02/17 06:05:52;;;;;;;11.77;10.43;;;;;;;9.55;100.00;100802.75;4988158;28;20224;-82
2023/02/17 06:08:19;;;;;;;14.20;11.87;;;;;;;9.57;100.00;100785.75;4995161;28;20206;-82
2023/02/17 06:10:46;;;;;;;14.50;10.80;;;;;;;9.61;100.00;100786.44;4989676;28;20210;-82
2023/02/17 06:13:13;;;;;;;15.97;12.33;;;;;;;9.60;100.00;100780.28;4990747;28;20228;-82
2023/02/17 06:15:40;;;;;;;13.33;11.83;;;;;;;9.61;100.00;100791.75;4986157;28;20231;-82
2023/02/17 06:18:07;;;;;;;15.20;12.83;;;;;;;9.62;100.00;100786.38;4992796;28;20689;-83
2023/02/17 06:20:33;;;;;;;15.00;12.90;;;;;;;9.65;100.00;100795.97;4992377;28;20586;-82
2023/02/17 06:23:00;;;;;;;12.50;11.07;;;;;;;9.67;100.00;100789.59;4987527;28;20213;-82
2023/02/17 06:25:26;;;;;;;14.57;12.37;;;;;;;9.65;100.00;100791.50;4990878;28;20251;-82
2023/02/17 06:27:54;;;;;;;16.07;12.50;;;;;;;9.68;100.00;100790.44;4991970;28;20596;-83
2023/02/17 06:30:22;;;;;;;13.67;12.13;;;;;;;9.69;100.00;100789.50;4987499;28;20211;-82
2023/02/17 06:32:48;;;;;;;15.20;12.60;;;;;;;9.70;100.00;100783.25;4986579;28;20219;-80
2023/02/17 06:35:15;;;;;;;17.77;13.07;;;;;;;9.69;100.00;100787.72;4992188;28;20231;-81
2023/02/17 06:37:41;;;;;;;15.87;12.60;;;;;;;9.72;100.00;100795.50;4990001;28;20211;-80
2023/02/17 06:40:09;;;;;;;16.13;13.27;;;;;;;9.75;100.00;100805.13;4994233;28;20207;-81
2023/02/17 06:42:36;;;;;;;14.70;12.43;;;;;;;9.72;99.18;100797.31;4992732;28;20208;-81
2023/02/17 06:45:04;;;;;;;14.93;11.87;;;;;;;9.73;99.48;100789.25;4993163;28;20227;-80
2023/02/17 06:47:31;;;;;;;13.97;11.47;;;;;;;9.75;98.50;100767.88;4984600;28;20302;-80
2023/02/17 06:49:57;;;;;;;14.30;11.70;;;;;;;9.78;98.04;100774.84;4988381;28;20212;-81
2023/02/17 06:52:24;;;;;;;14.93;12.03;;;;;;;9.76;97.62;100756.31;4986416;28;20681;-81
2023/02/17 06:54:50;;;;;;;15.87;11.83;;;;;;;9.79;97.14;100756.13;4991605;28;20232;-81
2023/02/17 06:57:17;;;;;;;15.60;12.40;;;;;;;9.79;97.19;100749.94;4991826;28;20208;-80
2023/02/17 06:59:44;;;;;;;15.70;13.20;;;;;;;9.80;96.54;100759.66;4999829;28;20207;-80
2023/02/17 07:02:13;;;;;;;17.50;13.80;;;;;;;9.80;96.35;100757.00;4997619;28;21485;-80
2023/02/17 07:04:39;;;;;;;17.37;13.80;;;;;;;9.83;95.91;100754.16;4984747;28;20220;-80
2023/02/17 07:07:06;;;;;;;15.93;14.00;;;;;;;9.85;96.03;100749.59;4985549;28;20211;-80
2023/02/17 07:09:32;;;;;;;16.87;14.50;;;;;;;9.89;95.38;100754.63;4996276;28;20212;-80
2023/02/17 07:11:59;;;;;;;18.20;13.80;;;;;;;9.93;95.23;100765.97;4992772;28;20203;-81
2023/02/17 07:14:26;;;;;;;16.27;14.10;;;;;;;9.96;95.10;100779.09;4994427;28;20247;-80
2023/02/17 07:16:54;;;;;;;18.60;14.13;;;;;;;9.95;95.00;100777.38;4989571;28;20207;-81
2023/02/17 07:19:22;;;;;;;18.47;15.50;;;;;;;9.98;94.96;100783.38;4991080;28;20208;-80
2023/02/17 07:21:48;;;;;;;19.83;14.90;;;;;;;9.95;94.66;100778.22;4991032;28;20200;-81
2023/02/17 07:24:14;;;;;;;15.90;13.47;;;;;;;9.98;94.58;100771.88;4994038;28;20231;-81
2023/02/17 07:26:41;;;;;;;15.47;12.73;;;;;;;10.00;94.20;100765.50;4980784;28;20200;-80
2023/02/17 07:29:07;;;;;;;16.77;13.00;;;;;;;10.03;93.95;100767.16;4988813;28;20201;-81
2023/02/17 07:31:34;;;;;;;18.00;14.03;;;;;;;10.02;94.04;100760.97;4990802;28;20199;-81
2023/02/17 07:34:01;;;;;;;14.40;12.87;;;;;;;10.02;93.67;100758.31;4995121;28;20234;-81
2023/02/17 07:36:30;;;;;;;13.93;12.43;;;;;;;10.04;93.78;100768.81;4995850;28;20207;-80
2023/02/17 07:38:56;;;;;;;13.50;12.03;;;;;;;10.05;93.61;100762.56;4986869;28;20204;-80
2023/02/17 07:41:27;;;;;;;13.13;11.47;;;;;;;10.05;93.54;100747.44;4989249;28;20204;-81
2023/02/17 07:43:55;;;;;;;12.37;10.80;;;;;;;10.07;93.58;100715.44;4996713;28;20224;-80
2023/02/17 07:46:22;;;;;;;13.13;11.07;;;;;;;10.09;93.36;100710.88;4993585;28;20207;-82
2023/02/17 07:48:48;;;;;;;13.70;10.40;;;;;;;10.11;93.30;100727.63;4993131;28;20212;-81
2023/02/17 07:51:17;;;;;;;10.90;9.73;;;;;;;10.16;92.67;100717.56;4996837;28;20213;-81
2023/02/17 07:53:45;;;;;;;11.30;10.13;;;;;;;10.17;92.66;100713.94;4984383;28;20242;-80
2023/02/17 07:56:13;;;;;;;12.50;11.10;;;;;;;10.18;92.39;100699.69;4992507;28;20211;-82
2023/02/17 07:58:42;;;;;;;11.97;10.10;;;;;;;10.20;92.17;100695.16;4984293;28;20572;-82
2023/02/17 08:01:11;;;;;;;11.17;9.97;;;;;;;10.23;91.87;100710.06;4985871;28;20204;-82
2023/02/17 08:03:38;;;;;;;14.87;11.13;;;;;;;10.23;91.50;100697.63;4978660;28;20766;-82
2023/02/17 08:06:08;;;;;;;10.93;9.83;;;;;;;10.22;91.44;100700.38;4993478;28;20240;-81
2023/02/17 08:14:04;;;;;;;12.87;9.23;;;;;;;10.31;90.91;100695.34;4983735;28;20258;-82
2023/02/17 08:16:30;;;;;;;9.87;8.83;;;;;;;10.32;91.12;100686.41;4999661;28;20203;-81
2023/02/17 08:18:57;;;;;;;11.57;10.37;;;;;;;10.34;90.78;100691.66;4989995;28;20219;-81
2023/02/17 08:21:25;;;;;;;11.00;9.90;;;;;;;10.40;91.44;100693.91;4997085;28;20200;-82
2023/02/17 08:23:52;;;;;;;10.43;9.43;;;;;;;10.38;91.17;100690.53;4996927;28;20230;-81
2023/02/17 08:26:20;;;;;;;12.33;11.00;;;;;;;10.43;91.35;100696.38;4997353;28;20214;-81
2023/02/17 08:28:48;;;;;;;11.20;10.10;;;;;;;10.45;91.04;100686.50;4996944;28;20221;-81
2023/02/17 08:31:18;;;;;;;10.50;9.40;;;;;;;10.47;91.56;100689.94;4992371;28;20232;-81
2023/02/17 08:33:45;;;;;;;11.33;9.83;;;;;;;10.49;91.10;100682.72;4992926;28;20601;-80
2023/02/17 08:36:12;;;;;;;10.77;9.73;;;;;;;10.51;91.32;100691.47;4989294;28;20678;-80
2023/02/17 08:38:38;;;;;;;11.47;8.30;;;;;;;10.50;91.49;100692.41;4990223;28;20530;-82
2023/02/17 08:41:12;;;;;;;11.47;9.17;;;;;;;10.56;91.54;100675.19;4984089;28;20217;-81
2023/02/17 08:43:40;;;;;;;9.80;8.60;;;;;;;10.56;91.83;100681.38;4983863;28;20290;-81
2023/02/17 08:46:07;;;;;;;11.00;9.60;;;;;;;10.59;91.72;100678.50;4992481;28;20212;-82
2023/02/17 08:48:34;;;;;;;10.33;8.93;;;;;;;10.57;91.69;100672.41;4986414;28;20212;-81
2023/02/17 08:51:00;;;;;;;10.67;8.60;;;;;;;10.61;92.07;100676.59;4991216;28;20213;-83
2023/02/17 08:53:27;;;;;;;11.07;9.90;;;;;;;10.62;92.00;100659.66;4996283;28;20212;-82
2023/02/17 08:55:53;;;;;;;9.80;8.33;;;;;;;10.69;91.85;100649.50;4997030;28;20273;-82
2023/02/17 08:58:20;;;;;;;11.40;9.80;;;;;;;10.69;91.66;100653.00;4995765;28;20211;-80
2023/02/17 09:00:48;;;;;;;10.30;9.27;;;;;;;10.73;92.00;100648.34;4995918;28;20205;-82
2023/02/17 09:03:15;;;;;;;10.40;9.30;;;;;;;10.72;91.96;100667.94;4996433;28;20208;-80
2023/02/17 09:05:41;;;;;;;10.07;9.07;;;;;;;10.72;92.19;100642.16;4994435;28;20711;-80
2023/02/17 09:08:09;;;;;;;10.23;9.23;;;;;;;10.72;92.08;100641.31;5007671;28;20217;-81
2023/02/17 09:10:36;;;;;;;10.00;8.50;;;;;;;10.73;92.07;100646.53;4993735;28;20263;-81
2023/02/17 09:13:03;;;;;;;10.20;8.73;;;;;;;10.76;92.34;100641.00;5000068;28;20209;-81
2023/02/17 09:15:29;;;;;;;8.80;7.90;;;;;;;10.78;92.42;100635.56;4992103;28;20259;-81
2023/02/17 09:17:57;;;;;;;9.77;8.83;;;;;;;10.78;92.73;100630.25;4996751;28;20203;-80
2023/02/17 09:20:23;;;;;;;10.93;8.27;;;;;;;10.80;93.01;100631.00;4999041;28;20803;-80
2023/02/17 09:22:50;;;;;;;12.67;9.23;;;;;;;10.85;93.02;100631.56;4991285;28;20205;-81
2023/02/17 09:25:16;;;;;;;7.80;6.93;;;;;;;10.83;93.69;100603.31;4988055;28;20224;-81
2023/02/17 09:27:43;;;;;;;9.13;7.93;;;;;;;10.85;93.44;100617.41;4995047;28;20211;-82
2023/02/17 09:30:10;;;;;;;8.07;7.23;;;;;;;10.86;93.88;100617.28;4996599;28;20211;-81
2023/02/17 09:32:37;;;;;;;8.07;7.27;;;;;;;10.93;93.62;100623.91;4989928;28;20204;-80
2023/02/17 09:35:05;;;;;;;9.27;8.10;;;;;;;10.97;93.53;100627.25;4983144;28;20236;-81
2023/02/17 09:37:32;;;;;;;8.17;6.87;;;;;;;11.04;93.12;100639.22;4995068;28;20267;-83
2023/02/17 09:39:58;;;;;;;8.77;7.87;;;;;;;11.03;93.07;100637.50;4989537;28;20217;-81
2023/02/17 09:42:28;;;;;;;8.23;7.43;;;;;;;11.04;93.29;100631.22;4990916;28;20207;-81
2023/02/17 09:44:59;;;;;;;7.50;6.70;;;;;;;11.05;93.17;100636.47;4989441;28;20236;-80
2023/02/17 09:47:32;;;;;;;9.10;7.80;;;;;;;11.08;93.34;100625.59;4987796;28;20800;-81
2023/02/17 09:50:02;;;;;;;8.40;7.60;;;;;;;11.10;93.41;100628.19;4992875;28;20610;-80
2023/02/17 09:52:37;;;;;;;8.07;7.27;;;;;;;11.10;93.86;100637.03;4991676;28;20212;-81
2023/02/17 09:55:07;;;;;;;9.17;6.50;;;;;;;11.11;93.80;100632.50;4988178;28;20244;-81
2023/02/17 09:57:37;;;;;;;8.10;7.30;;;;;;;11.12;93.89;100640.41;5003065;28;20207;-81
2023/02/17 10:00:09;;;;;;;8.97;8.07;;;;;;;11.13;94.06;100636.78;4993858;28;20216;-81
2023/02/17 10:02:44;;;;;;;8.20;7.40;;;;;;;11.10;94.56;100653.00;4980502;28;20213;-81
2023/02/17 10:05:15;;;;;;;9.50;7.63;;;;;;;11.10;95.13;100639.69;4985600;28;20227;-80
2023/02/17 10:07:48;;;;;;;9.83;8.60;;;;;;;11.11;95.45;100640.50;4990351;28;20201;-81
2023/02/17 10:10:20;;;;;;;9.27;8.30;;;;;;;11.11;95.81;100654.69;4996817;28;20231;-81
2023/02/17 10:12:52;;;;;;;8.97;8.03;;;;;;;11.13;95.66;100639.47;4990446;28;20558;-81
2023/02/17 10:15:23;;;;;;;9.50;7.70;;;;;;;11.09;96.24;100627.31;4989136;28;20291;-81
2023/02/17 10:17:57;;;;;;;13.90;9.10;;;;;;;11.07;96.53;100642.56;4995282;28;20227;-80
2023/02/17 10:20:28;;;;;;;9.50;8.50;;;;;;;11.09;96.81;100645.97;4990279;28;20223;-81
2023/02/17 10:23:03;;;;;;;10.43;9.37;;;;;;;11.06;97.06;100651.50;4987423;28;20200;-80
2023/02/17 10:25:56;;;;;;;11.10;8.83;;;;;;;11.07;97.31;100642.56;4991864;28;20234;-82
2023/02/17 10:28:36;;;;;;;10.17;8.90;;;;;;;11.07;97.31;100626.56;4983681;28;20200;-80
2023/02/17 10:31:05;;;;;;;11.77;9.53;;;;;;;11.10;97.18;100620.19;4990033;28;20207;-80
2023/02/17 10:33:35;;;;;;;12.83;9.60;;;;;;;11.11;97.36;100622.72;4992243;28;20207;-80
2023/02/17 10:36:12;;;;;;;10.90;8.23;;;;;;;11.09;97.85;100621.13;4992426;28;20217;-82
2023/02/17 10:38:49;;;;;;;9.97;8.90;;;;;;;11.11;97.76;100605.88;4990629;28;20207;-80
2023/02/17 10:41:20;;;;;;;10.43;9.13;;;;;;;11.17;97.66;100625.94;4991247;28;20205;-81
2023/02/17 10:43:48;;;;;;;9.83;8.70;;;;;;;11.21;97.62;100600.78;4992776;28;20189;-83
2023/02/17 10:46:18;;;;;;;9.87;8.03;;;;;;;11.18;98.12;100619.66;4993147;28;20202;-82
2023/02/17 10:48:49;;;;;;;10.23;8.90;;;;;;;11.17;98.30;100601.94;4992849;28;20207;-82
2023/02/17 10:51:18;;;;;;;11.33;10.23;;;;;;;11.18;98.22;100601.84;4993406;28;20218;-82
2023/02/17 10:53:51;;;;;;;10.50;9.40;;;;;;;11.23;98.16;100593.56;4993176;28;20220;-83
2023/02/17 10:56:21;;;;;;;12.70;10.57;;;;;;;11.22;98.11;100599.84;4973302;28;20209;-82
2023/02/17 10:58:55;;;;;;;10.77;9.67;;;;;;;11.24;98.19;100589.94;4973509;28;20263;-82
2023/02/17 11:01:22;;;;;;;11.53;8.97;;;;;;;11.26;97.97;100593.34;4973075;28;20199;-83
2023/02/17 11:03:59;;;;;;;10.23;7.40;;;;;;;11.30;97.98;100576.16;4972857;28;20223;-82
2023/02/17 11:06:26;;;;;;;9.23;8.03;;;;;;;11.29;97.93;100571.78;4980210;28;20200;-82
2023/02/17 11:08:58;;;;;;;10.83;9.47;;;;;;;11.28;97.73;100554.97;4992988;28;20211;-84
2023/02/17 11:11:27;;;;;;;10.77;9.23;;;;;;;11.35;97.43;100550.06;4992625;28;20195;-82
2023/02/17 11:14:12;;;;;;;9.27;8.30;;;;;;;11.44;96.97;100547.63;4993184;28;20218;-81
2023/02/17 11:16:41;;;;;;;12.67;9.67;;;;;;;11.45;96.12;100537.81;4992679;28;20196;-82
2023/02/17 11:19:22;;;;;;;9.57;8.67;;;;;;;11.49;95.85;100528.63;4991872;28;20201;-84
2023/02/17 11:21:50;;;;;;;10.17;9.07;;;;;;;11.52;95.18;100532.91;4992252;28;20194;-82
2023/02/17 11:24:18;;;;;;;10.03;9.00;;;;;;;11.56;94.98;100521.91;4994295;28;20240;-84
2023/02/17 11:26:55;;;;;;;9.50;8.43;;;;;;;11.59;94.54;100545.72;4992920;28;20209;-83